sensor_id;sensor_type;location;lat;lon;timestamp;temperature;humidity
47090;DHT22;32840;52.516;13.294;2023-08-06T00:02:22;19.10;99.90
47090;DHT22;32840;52.516;13.294;2023-08-06T00:05:07;19.10;99.90
47090;DHT22;32840;52.516;13.294;2023-08-06T00:07:52;19.10;99.90
47090;DHT22;32840;52.516;13.294;2023-08-06T00:10:39;19.10;99.90
47090;DHT22;32840;52.516;13.294;2023-08-06T00:13:25;18.90;99.90
47090;DHT22;32840;52.516;13.294;2023-08-06T00:16:11;18.90;99.90
47090;DHT22;32840;52.516;13.294;2023-08-06T00:18:56;18.90;99.90
47090;DHT22;32840;52.516;13.294;2023-08-06T00:21:41;18.80;99.90
47090;DHT22;32840;52.516;13.294;2023-08-06T00:24:26;18.80;99.90
47090;DHT22;32840;52.516;13.294;2023-08-06T00:27:11;18.80;99.90
47090;DHT22;32840;52.516;13.294;2023-08-06T00:29:56;18.80;99.90
47090;DHT22;32840;52.516;13.294;2023-08-06T00:32:41;18.80;99.90
47090;DHT22;32840;52.516;13.294;2023-08-06T00:35:26;18.80;99.90
47090;DHT22;32840;52.516;13.294;2023-08-06T00:38:11;18.90;99.90
47090;DHT22;32840;52.516;13.294;2023-08-06T00:40:56;19.00;99.90
47090;DHT22;32840;52.516;13.294;2023-08-06T00:43:41;19.00;99.90
47090;DHT22;32840;52.516;13.294;2023-08-06T00:46:26;19.00;99.90
47090;DHT22;32840;52.516;13.294;2023-08-06T00:49:11;19.00;99.90
47090;DHT22;32840;52.516;13.294;2023-08-06T00:51:56;19.00;99.90
47090;DHT22;32840;52.516;13.294;2023-08-06T00:54:41;18.90;99.90
47090;DHT22;32840;52.516;13.294;2023-08-06T00:57:27;18.90;99.90
47090;DHT22;32840;52.516;13.294;2023-08-06T01:00:12;18.90;99.90
47090;DHT22;32840;52.516;13.294;2023-08-06T01:02:57;18.90;99.90
47090;DHT22;32840;52.516;13.294;2023-08-06T01:05:42;19.00;99.90
47090;DHT22;32840;52.516;13.294;2023-08-06T01:15:01;18.70;99.90
47090;DHT22;32840;52.516;13.294;2023-08-06T01:17:48;18.80;99.90
47090;DHT22;32840;52.516;13.294;2023-08-06T01:20:33;18.80;99.90
47090;DHT22;32840;52.516;13.294;2023-08-06T01:23:19;18.70;99.90
47090;DHT22;32840;52.516;13.294;2023-08-06T01:26:28;18.80;99.90
47090;DHT22;32840;52.516;13.294;2023-08-06T01:29:31;18.80;99.90
47090;DHT22;32840;52.516;13.294;2023-08-06T01:32:19;18.70;99.90
47090;DHT22;32840;52.516;13.294;2023-08-06T01:35:05;18.80;99.90
47090;DHT22;32840;52.516;13.294;2023-08-06T01:37:51;18.60;99.90
47090;DHT22;32840;52.516;13.294;2023-08-06T01:40:37;18.60;99.90
47090;DHT22;32840;52.516;13.294;2023-08-06T01:43:22;18.60;99.90
47090;DHT22;32840;52.516;13.294;2023-08-06T01:46:07;18.60;99.90
47090;DHT22;32840;52.516;13.294;2023-08-06T01:48:52;18.70;99.90
47090;DHT22;32840;52.516;13.294;2023-08-06T01:51:38;18.70;99.90
47090;DHT22;32840;52.516;13.294;2023-08-06T01:54:23;18.70;99.90
47090;DHT22;32840;52.516;13.294;2023-08-06T01:57:08;18.60;99.90
47090;DHT22;32840;52.516;13.294;2023-08-06T01:59:52;18.70;99.90
47090;DHT22;32840;52.516;13.294;2023-08-06T02:02:37;18.80;99.90
47090;DHT22;32840;52.516;13.294;2023-08-06T02:05:22;18.80;99.90
47090;DHT22;32840;52.516;13.294;2023-08-06T02:08:08;18.80;99.90
47090;DHT22;32840;52.516;13.294;2023-08-06T02:10:52;19.00;99.90
47090;DHT22;32840;52.516;13.294;2023-08-06T02:13:38;19.00;99.90
47090;DHT22;32840;52.516;13.294;2023-08-06T02:16:23;18.90;99.90
47090;DHT22;32840;52.516;13.294;2023-08-06T02:19:08;18.90;99.90
47090;DHT22;32840;52.516;13.294;2023-08-06T02:21:53;18.90;99.90
47090;DHT22;32840;52.516;13.294;2023-08-06T02:24:38;18.90;99.90
47090;DHT22;32840;52.516;13.294;2023-08-06T02:27:23;18.80;99.90
47090;DHT22;32840;52.516;13.294;2023-08-06T02:30:08;18.70;99.90
47090;DHT22;32840;52.516;13.294;2023-08-06T02:32:52;18.70;99.90
47090;DHT22;32840;52.516;13.294;2023-08-06T02:35:37;18.70;99.90
47090;DHT22;32840;52.516;13.294;2023-08-06T02:38:23;18.60;99.90
47090;DHT22;32840;52.516;13.294;2023-08-06T02:41:07;18.60;99.90
47090;DHT22;32840;52.516;13.294;2023-08-06T02:43:52;18.40;99.90
47090;DHT22;32840;52.516;13.294;2023-08-06T02:46:37;18.50;99.90
47090;DHT22;32840;52.516;13.294;2023-08-06T02:49:22;18.40;99.90
47090;DHT22;32840;52.516;13.294;2023-08-06T02:52:07;18.40;99.90
47090;DHT22;32840;52.516;13.294;2023-08-06T02:54:52;18.40;99.90
47090;DHT22;32840;52.516;13.294;2023-08-06T02:57:37;18.30;99.90
47090;DHT22;32840;52.516;13.294;2023-08-06T03:00:22;18.40;99.90
47090;DHT22;32840;52.516;13.294;2023-08-06T03:03:07;18.30;99.90
47090;DHT22;32840;52.516;13.294;2023-08-06T03:05:53;18.30;99.90
47090;DHT22;32840;52.516;13.294;2023-08-06T03:08:38;18.40;99.90
47090;DHT22;32840;52.516;13.294;2023-08-06T03:11:23;18.30;99.90
47090;DHT22;32840;52.516;13.294;2023-08-06T03:14:08;18.20;99.90
47090;DHT22;32840;52.516;13.294;2023-08-06T03:16:53;18.20;99.90
47090;DHT22;32840;52.516;13.294;2023-08-06T03:19:38;18.30;99.90
47090;DHT22;32840;52.516;13.294;2023-08-06T03:22:22;18.20;99.90
47090;DHT22;32840;52.516;13.294;2023-08-06T03:25:07;18.30;99.90
47090;DHT22;32840;52.516;13.294;2023-08-06T03:27:52;18.40;99.90
47090;DHT22;32840;52.516;13.294;2023-08-06T03:30:38;18.30;99.90
47090;DHT22;32840;52.516;13.294;2023-08-06T03:33:22;18.40;99.90
47090;DHT22;32840;52.516;13.294;2023-08-06T03:36:07;18.40;99.90
47090;DHT22;32840;52.516;13.294;2023-08-06T03:38:52;18.40;99.90
47090;DHT22;32840;52.516;13.294;2023-08-06T03:41:37;18.50;99.90
47090;DHT22;32840;52.516;13.294;2023-08-06T03:44:22;18.50;99.90
47090;DHT22;32840;52.516;13.294;2023-08-06T03:47:07;18.60;99.90
47090;DHT22;32840;52.516;13.294;2023-08-06T03:49:51;18.60;99.90
47090;DHT22;32840;52.516;13.294;2023-08-06T03:52:36;18.40;99.90
47090;DHT22;32840;52.516;13.294;2023-08-06T03:55:21;18.30;99.90
47090;DHT22;32840;52.516;13.294;2023-08-06T03:58:07;18.20;99.90
47090;DHT22;32840;52.516;13.294;2023-08-06T04:01:01;18.20;99.90
47090;DHT22;32840;52.516;13.294;2023-08-06T04:03:46;18.20;99.90
47090;DHT22;32840;52.516;13.294;2023-08-06T04:06:31;18.30;99.90
47090;DHT22;32840;52.516;13.294;2023-08-06T04:09:16;18.30;99.90
47090;DHT22;32840;52.516;13.294;2023-08-06T04:12:01;18.30;99.90
47090;DHT22;32840;52.516;13.294;2023-08-06T04:14:47;18.40;99.90
47090;DHT22;32840;52.516;13.294;2023-08-06T04:17:32;18.40;99.90
47090;DHT22;32840;52.516;13.294;2023-08-06T04:20:17;18.30;99.90
47090;DHT22;32840;52.516;13.294;2023-08-06T04:23:06;18.30;99.90
47090;DHT22;32840;52.516;13.294;2023-08-06T04:25:51;18.30;99.90
47090;DHT22;32840;52.516;13.294;2023-08-06T04:28:36;18.20;99.90
47090;DHT22;32840;52.516;13.294;2023-08-06T04:31:21;18.30;99.90
47090;DHT22;32840;52.516;13.294;2023-08-06T04:34:06;18.30;99.90
47090;DHT22;32840;52.516;13.294;2023-08-06T04:36:53;18.30;99.90
47090;DHT22;32840;52.516;13.294;2023-08-06T04:39:38;18.20;99.90
47090;DHT22;32840;52.516;13.294;2023-08-06T04:42:23;18.20;99.90
47090;DHT22;32840;52.516;13.294;2023-08-06T04:45:08;18.10;99.90
47090;DHT22;32840;52.516;13.294;2023-08-06T04:47:53;18.10;99.90
47090;DHT22;32840;52.516;13.294;2023-08-06T04:50:38;18.30;99.90
47090;DHT22;32840;52.516;13.294;2023-08-06T04:53:27;18.30;99.90
47090;DHT22;32840;52.516;13.294;2023-08-06T04:56:12;18.50;99.90
47090;DHT22;32840;52.516;13.294;2023-08-06T04:58:57;18.60;99.90
47090;DHT22;32840;52.516;13.294;2023-08-06T05:01:41;18.60;99.90
47090;DHT22;32840;52.516;13.294;2023-08-06T05:04:27;18.50;99.90
47090;DHT22;32840;52.516;13.294;2023-08-06T05:07:12;18.70;99.90
47090;DHT22;32840;52.516;13.294;2023-08-06T05:09:57;18.50;99.90
47090;DHT22;32840;52.516;13.294;2023-08-06T05:12:42;18.50;99.90
47090;DHT22;32840;52.516;13.294;2023-08-06T05:15:27;18.60;99.90
47090;DHT22;32840;52.516;13.294;2023-08-06T05:18:12;18.50;99.90
47090;DHT22;32840;52.516;13.294;2023-08-06T05:20:57;18.50;99.90
47090;DHT22;32840;52.516;13.294;2023-08-06T05:23:42;18.70;99.90
47090;DHT22;32840;52.516;13.294;2023-08-06T05:26:27;18.60;99.90
47090;DHT22;32840;52.516;13.294;2023-08-06T05:29:12;18.70;99.90
47090;DHT22;32840;52.516;13.294;2023-08-06T05:31:57;18.60;99.90
47090;DHT22;32840;52.516;13.294;2023-08-06T05:34:41;18.70;99.90
47090;DHT22;32840;52.516;13.294;2023-08-06T05:37:26;18.80;99.90
47090;DHT22;32840;52.516;13.294;2023-08-06T05:40:11;18.80;99.90
47090;DHT22;32840;52.516;13.294;2023-08-06T05:42:56;18.80;99.90
47090;DHT22;32840;52.516;13.294;2023-08-06T05:45:45;18.80;99.90
47090;DHT22;32840;52.516;13.294;2023-08-06T05:48:30;18.80;99.90
47090;DHT22;32840;52.516;13.294;2023-08-06T05:51:16;18.70;99.90
47090;DHT22;32840;52.516;13.294;2023-08-06T05:54:01;18.70;99.90
47090;DHT22;32840;52.516;13.294;2023-08-06T05:56:46;18.80;99.90
47090;DHT22;32840;52.516;13.294;2023-08-06T05:59:31;18.70;99.90
47090;DHT22;32840;52.516;13.294;2023-08-06T06:02:16;18.70;99.90
47090;DHT22;32840;52.516;13.294;2023-08-06T06:05:03;18.70;99.90
47090;DHT22;32840;52.516;13.294;2023-08-06T06:07:51;18.70;99.90
47090;DHT22;32840;52.516;13.294;2023-08-06T06:10:36;18.70;99.90
47090;DHT22;32840;52.516;13.294;2023-08-06T06:13:21;18.70;99.90
47090;DHT22;32840;52.516;13.294;2023-08-06T06:16:06;18.60;99.90
47090;DHT22;32840;52.516;13.294;2023-08-06T06:18:51;18.40;99.90
47090;DHT22;32840;52.516;13.294;2023-08-06T06:21:36;18.30;99.90
47090;DHT22;32840;52.516;13.294;2023-08-06T06:24:22;18.30;99.90
47090;DHT22;32840;52.516;13.294;2023-08-06T06:27:07;18.40;99.90
47090;DHT22;32840;52.516;13.294;2023-08-06T06:29:52;18.40;99.90
47090;DHT22;32840;52.516;13.294;2023-08-06T06:32:39;18.50;99.90
47090;DHT22;32840;52.516;13.294;2023-08-06T06:35:25;18.60;99.90
47090;DHT22;32840;52.516;13.294;2023-08-06T06:38:10;18.70;99.90
47090;DHT22;32840;52.516;13.294;2023-08-06T06:40:56;18.90;99.90
47090;DHT22;32840;52.516;13.294;2023-08-06T06:43:41;18.90;99.90
47090;DHT22;32840;52.516;13.294;2023-08-06T06:46:26;18.60;99.90
47090;DHT22;32840;52.516;13.294;2023-08-06T06:49:11;18.50;99.90
47090;DHT22;32840;52.516;13.294;2023-08-06T06:51:56;18.50;99.90
47090;DHT22;32840;52.516;13.294;2023-08-06T06:54:41;18.40;99.90
47090;DHT22;32840;52.516;13.294;2023-08-06T06:57:26;18.40;99.90
47090;DHT22;32840;52.516;13.294;2023-08-06T07:00:11;18.20;99.90
47090;DHT22;32840;52.516;13.294;2023-08-06T07:02:56;18.20;99.90
47090;DHT22;32840;52.516;13.294;2023-08-06T07:05:42;18.20;99.90
47090;DHT22;32840;52.516;13.294;2023-08-06T07:08:27;18.30;99.90
47090;DHT22;32840;52.516;13.294;2023-08-06T07:11:12;18.60;99.90
47090;DHT22;32840;52.516;13.294;2023-08-06T07:13:57;18.60;99.90
47090;DHT22;32840;52.516;13.294;2023-08-06T07:16:43;18.70;99.90
47090;DHT22;32840;52.516;13.294;2023-08-06T07:19:29;18.80;99.90
47090;DHT22;32840;52.516;13.294;2023-08-06T07:22:14;18.90;99.90
47090;DHT22;32840;52.516;13.294;2023-08-06T07:24:59;18.90;99.90
47090;DHT22;32840;52.516;13.294;2023-08-06T07:27:44;18.70;99.90
47090;DHT22;32840;52.516;13.294;2023-08-06T07:30:29;18.70;99.90
47090;DHT22;32840;52.516;13.294;2023-08-06T07:33:13;18.80;99.90
47090;DHT22;32840;52.516;13.294;2023-08-06T07:35:58;18.90;99.90
47090;DHT22;32840;52.516;13.294;2023-08-06T07:38:43;18.90;99.90
47090;DHT22;32840;52.516;13.294;2023-08-06T07:41:28;18.70;99.90
47090;DHT22;32840;52.516;13.294;2023-08-06T07:44:13;18.60;99.90
47090;DHT22;32840;52.516;13.294;2023-08-06T07:46:58;18.40;99.90
47090;DHT22;32840;52.516;13.294;2023-08-06T07:49:43;18.30;99.90
47090;DHT22;32840;52.516;13.294;2023-08-06T07:52:28;18.30;99.90
47090;DHT22;32840;52.516;13.294;2023-08-06T07:55:13;18.30;99.90
47090;DHT22;32840;52.516;13.294;2023-08-06T07:57:58;18.40;99.90
47090;DHT22;32840;52.516;13.294;2023-08-06T08:00:43;18.50;99.90
47090;DHT22;32840;52.516;13.294;2023-08-06T08:03:30;18.50;99.90
47090;DHT22;32840;52.516;13.294;2023-08-06T08:06:15;18.60;99.90
47090;DHT22;32840;52.516;13.294;2023-08-06T08:09:00;18.70;99.90
47090;DHT22;32840;52.516;13.294;2023-08-06T08:11:45;18.90;99.90
47090;DHT22;32840;52.516;13.294;2023-08-06T08:14:30;18.80;99.90
47090;DHT22;32840;52.516;13.294;2023-08-06T08:17:20;18.70;99.90
47090;DHT22;32840;52.516;13.294;2023-08-06T08:20:05;18.70;99.90
47090;DHT22;32840;52.516;13.294;2023-08-06T08:22:50;18.90;99.90
47090;DHT22;32840;52.516;13.294;2023-08-06T08:25:35;19.00;99.90
47090;DHT22;32840;52.516;13.294;2023-08-06T08:28:21;18.90;99.90
47090;DHT22;32840;52.516;13.294;2023-08-06T08:31:08;18.70;99.90
47090;DHT22;32840;52.516;13.294;2023-08-06T08:33:54;18.60;99.90
47090;DHT22;32840;52.516;13.294;2023-08-06T08:36:39;18.60;99.90
47090;DHT22;32840;52.516;13.294;2023-08-06T08:39:24;18.60;99.90
47090;DHT22;32840;52.516;13.294;2023-08-06T08:42:10;18.60;99.90
47090;DHT22;32840;52.516;13.294;2023-08-06T08:44:55;18.70;99.90
47090;DHT22;32840;52.516;13.294;2023-08-06T08:47:42;18.80;99.90
47090;DHT22;32840;52.516;13.294;2023-08-06T08:50:27;18.70;99.90
47090;DHT22;32840;52.516;13.294;2023-08-06T08:53:14;18.70;99.90
47090;DHT22;32840;52.516;13.294;2023-08-06T08:55:59;18.70;99.90
47090;DHT22;32840;52.516;13.294;2023-08-06T08:58:44;18.80;99.90
47090;DHT22;32840;52.516;13.294;2023-08-06T09:01:31;18.80;99.90
47090;DHT22;32840;52.516;13.294;2023-08-06T09:04:18;18.90;99.90
47090;DHT22;32840;52.516;13.294;2023-08-06T09:07:04;19.00;99.90
47090;DHT22;32840;52.516;13.294;2023-08-06T09:09:50;19.00;99.90
47090;DHT22;32840;52.516;13.294;2023-08-06T09:12:35;19.00;99.90
47090;DHT22;32840;52.516;13.294;2023-08-06T09:15:23;18.90;99.90
47090;DHT22;32840;52.516;13.294;2023-08-06T09:18:11;19.00;99.90
47090;DHT22;32840;52.516;13.294;2023-08-06T09:20:57;19.00;99.90
47090;DHT22;32840;52.516;13.294;2023-08-06T09:23:42;19.00;99.90
47090;DHT22;32840;52.516;13.294;2023-08-06T09:26:33;18.90;99.90
47090;DHT22;32840;52.516;13.294;2023-08-06T09:29:18;18.90;99.90
47090;DHT22;32840;52.516;13.294;2023-08-06T09:32:03;19.00;99.90
47090;DHT22;32840;52.516;13.294;2023-08-06T09:34:56;19.10;99.90
47090;DHT22;32840;52.516;13.294;2023-08-06T09:37:41;19.10;99.90
47090;DHT22;32840;52.516;13.294;2023-08-06T09:40:28;19.10;99.90
47090;DHT22;32840;52.516;13.294;2023-08-06T09:43:13;19.10;99.90
47090;DHT22;32840;52.516;13.294;2023-08-06T09:45:58;19.30;99.90
47090;DHT22;32840;52.516;13.294;2023-08-06T09:48:47;19.40;99.90
47090;DHT22;32840;52.516;13.294;2023-08-06T09:51:32;19.50;99.90
47090;DHT22;32840;52.516;13.294;2023-08-06T09:54:20;19.60;99.90
47090;DHT22;32840;52.516;13.294;2023-08-06T09:57:06;19.80;99.90
47090;DHT22;32840;52.516;13.294;2023-08-06T09:59:52;19.90;99.90
47090;DHT22;32840;52.516;13.294;2023-08-06T10:02:54;20.20;99.90
47090;DHT22;32840;52.516;13.294;2023-08-06T10:05:45;20.30;99.90
47090;DHT22;32840;52.516;13.294;2023-08-06T10:08:30;20.00;99.90
47090;DHT22;32840;52.516;13.294;2023-08-06T10:11:17;19.80;99.90
47090;DHT22;32840;52.516;13.294;2023-08-06T10:14:12;19.60;99.90
47090;DHT22;32840;52.516;13.294;2023-08-06T10:16:58;19.80;99.90
47090;DHT22;32840;52.516;13.294;2023-08-06T10:19:44;19.70;99.90
47090;DHT22;32840;52.516;13.294;2023-08-06T10:22:32;19.60;99.90
47090;DHT22;32840;52.516;13.294;2023-08-06T10:25:18;19.60;99.90
47090;DHT22;32840;52.516;13.294;2023-08-06T10:28:10;19.70;99.90
47090;DHT22;32840;52.516;13.294;2023-08-06T10:30:55;19.80;99.90
47090;DHT22;32840;52.516;13.294;2023-08-06T10:33:47;19.60;99.90
47090;DHT22;32840;52.516;13.294;2023-08-06T10:36:32;19.40;99.90
47090;DHT22;32840;52.516;13.294;2023-08-06T10:39:17;19.40;99.90
47090;DHT22;32840;52.516;13.294;2023-08-06T10:42:03;19.30;99.90
47090;DHT22;32840;52.516;13.294;2023-08-06T10:48:01;19.20;99.90
47090;DHT22;32840;52.516;13.294;2023-08-06T10:50:46;19.10;99.90
47090;DHT22;32840;52.516;13.294;2023-08-06T10:53:31;19.00;99.90
47090;DHT22;32840;52.516;13.294;2023-08-06T10:56:17;18.90;99.90
47090;DHT22;32840;52.516;13.294;2023-08-06T10:59:03;18.80;99.90
47090;DHT22;32840;52.516;13.294;2023-08-06T11:01:48;18.80;99.90
47090;DHT22;32840;52.516;13.294;2023-08-06T11:04:33;18.70;99.90
47090;DHT22;32840;52.516;13.294;2023-08-06T11:07:18;18.80;99.90
47090;DHT22;32840;52.516;13.294;2023-08-06T11:10:04;18.70;99.90
47090;DHT22;32840;52.516;13.294;2023-08-06T11:12:48;18.80;99.90
47090;DHT22;32840;52.516;13.294;2023-08-06T11:15:33;18.90;99.90
47090;DHT22;32840;52.516;13.294;2023-08-06T11:18:18;18.90;99.90
47090;DHT22;32840;52.516;13.294;2023-08-06T11:21:03;18.80;99.90
47090;DHT22;32840;52.516;13.294;2023-08-06T11:23:48;18.70;99.90
47090;DHT22;32840;52.516;13.294;2023-08-06T11:26:33;18.70;99.90
47090;DHT22;32840;52.516;13.294;2023-08-06T11:29:21;18.80;99.90
47090;DHT22;32840;52.516;13.294;2023-08-06T11:32:08;18.90;99.90
47090;DHT22;32840;52.516;13.294;2023-08-06T11:34:53;18.90;99.90
47090;DHT22;32840;52.516;13.294;2023-08-06T11:37:44;18.80;99.90
47090;DHT22;32840;52.516;13.294;2023-08-06T11:40:30;18.70;99.90
47090;DHT22;32840;52.516;13.294;2023-08-06T11:43:17;18.80;99.90
47090;DHT22;32840;52.516;13.294;2023-08-06T11:46:02;18.80;99.90
47090;DHT22;32840;52.516;13.294;2023-08-06T11:48:57;18.70;99.90
47090;DHT22;32840;52.516;13.294;2023-08-06T11:51:45;18.70;99.90
47090;DHT22;32840;52.516;13.294;2023-08-06T11:54:32;18.70;99.90
47090;DHT22;32840;52.516;13.294;2023-08-06T11:57:19;18.90;99.90
47090;DHT22;32840;52.516;13.294;2023-08-06T12:00:06;18.90;99.90
47090;DHT22;32840;52.516;13.294;2023-08-06T12:02:52;18.80;99.90
47090;DHT22;32840;52.516;13.294;2023-08-06T12:05:37;18.80;99.90
47090;DHT22;32840;52.516;13.294;2023-08-06T12:08:26;18.70;99.90
47090;DHT22;32840;52.516;13.294;2023-08-06T12:11:11;18.60;99.90
47090;DHT22;32840;52.516;13.294;2023-08-06T12:13:57;18.40;99.90
47090;DHT22;32840;52.516;13.294;2023-08-06T12:16:41;18.20;99.90
47090;DHT22;32840;52.516;13.294;2023-08-06T12:19:26;17.90;99.90
47090;DHT22;32840;52.516;13.294;2023-08-06T12:22:12;17.80;99.90
47090;DHT22;32840;52.516;13.294;2023-08-06T12:24:58;18.00;99.90
47090;DHT22;32840;52.516;13.294;2023-08-06T12:27:44;18.20;99.90
47090;DHT22;32840;52.516;13.294;2023-08-06T12:30:29;18.40;99.90
47090;DHT22;32840;52.516;13.294;2023-08-06T12:33:13;18.50;99.90
47090;DHT22;32840;52.516;13.294;2023-08-06T12:35:58;18.60;99.90
47090;DHT22;32840;52.516;13.294;2023-08-06T12:38:43;18.70;99.90
47090;DHT22;32840;52.516;13.294;2023-08-06T12:41:29;18.70;99.90
47090;DHT22;32840;52.516;13.294;2023-08-06T12:44:14;18.70;99.90
47090;DHT22;32840;52.516;13.294;2023-08-06T12:46:58;18.80;99.90
47090;DHT22;32840;52.516;13.294;2023-08-06T12:49:44;18.90;99.90
47090;DHT22;32840;52.516;13.294;2023-08-06T12:52:28;18.80;99.90
47090;DHT22;32840;52.516;13.294;2023-08-06T12:55:14;18.60;99.90
47090;DHT22;32840;52.516;13.294;2023-08-06T12:57:58;18.40;99.90
47090;DHT22;32840;52.516;13.294;2023-08-06T13:00:43;18.40;99.90
47090;DHT22;32840;52.516;13.294;2023-08-06T13:03:28;18.50;99.90
47090;DHT22;32840;52.516;13.294;2023-08-06T13:06:14;18.70;99.90
47090;DHT22;32840;52.516;13.294;2023-08-06T13:08:58;18.70;99.90
47090;DHT22;32840;52.516;13.294;2023-08-06T13:11:43;18.80;99.90
47090;DHT22;32840;52.516;13.294;2023-08-06T13:14:31;19.00;99.90
47090;DHT22;32840;52.516;13.294;2023-08-06T13:17:15;19.00;99.90
47090;DHT22;32840;52.516;13.294;2023-08-06T13:20:00;19.00;99.90
47090;DHT22;32840;52.516;13.294;2023-08-06T13:22:45;19.00;99.90
47090;DHT22;32840;52.516;13.294;2023-08-06T13:25:31;19.00;99.90
47090;DHT22;32840;52.516;13.294;2023-08-06T13:28:21;19.10;99.90
47090;DHT22;32840;52.516;13.294;2023-08-06T13:31:06;19.10;99.90
47090;DHT22;32840;52.516;13.294;2023-08-06T13:33:51;18.90;99.90
47090;DHT22;32840;52.516;13.294;2023-08-06T13:36:36;18.90;99.90
47090;DHT22;32840;52.516;13.294;2023-08-06T13:39:21;18.80;99.90
47090;DHT22;32840;52.516;13.294;2023-08-06T13:42:06;18.70;99.90
47090;DHT22;32840;52.516;13.294;2023-08-06T13:44:51;18.60;99.90
47090;DHT22;32840;52.516;13.294;2023-08-06T13:47:36;18.60;99.90
47090;DHT22;32840;52.516;13.294;2023-08-06T13:50:21;18.60;99.90
47090;DHT22;32840;52.516;13.294;2023-08-06T13:53:07;18.60;99.90
47090;DHT22;32840;52.516;13.294;2023-08-06T13:55:51;18.50;99.90
47090;DHT22;32840;52.516;13.294;2023-08-06T13:58:37;18.50;99.90
47090;DHT22;32840;52.516;13.294;2023-08-06T14:01:22;18.50;99.90
47090;DHT22;32840;52.516;13.294;2023-08-06T14:04:10;18.50;99.90
47090;DHT22;32840;52.516;13.294;2023-08-06T14:06:55;18.40;99.90
47090;DHT22;32840;52.516;13.294;2023-08-06T14:09:40;18.40;99.90
47090;DHT22;32840;52.516;13.294;2023-08-06T14:12:27;18.40;99.90
47090;DHT22;32840;52.516;13.294;2023-08-06T14:15:12;18.40;99.90
47090;DHT22;32840;52.516;13.294;2023-08-06T14:17:56;18.30;99.90
47090;DHT22;32840;52.516;13.294;2023-08-06T14:20:41;18.40;99.90
47090;DHT22;32840;52.516;13.294;2023-08-06T14:23:26;18.40;99.90
47090;DHT22;32840;52.516;13.294;2023-08-06T14:26:11;18.30;99.90
47090;DHT22;32840;52.516;13.294;2023-08-06T14:28:56;18.40;99.90
47090;DHT22;32840;52.516;13.294;2023-08-06T14:31:41;18.40;99.90
47090;DHT22;32840;52.516;13.294;2023-08-06T14:34:26;18.50;99.90
47090;DHT22;32840;52.516;13.294;2023-08-06T14:37:12;18.40;99.90
47090;DHT22;32840;52.516;13.294;2023-08-06T14:39:57;18.40;99.90
47090;DHT22;32840;52.516;13.294;2023-08-06T14:42:42;18.30;99.90
47090;DHT22;32840;52.516;13.294;2023-08-06T14:45:27;18.20;99.90
47090;DHT22;32840;52.516;13.294;2023-08-06T14:48:12;18.10;99.90
47090;DHT22;32840;52.516;13.294;2023-08-06T14:50:57;18.10;99.90
47090;DHT22;32840;52.516;13.294;2023-08-06T14:53:42;18.10;99.90
47090;DHT22;32840;52.516;13.294;2023-08-06T14:56:30;18.30;99.90
47090;DHT22;32840;52.516;13.294;2023-08-06T14:59:14;18.30;99.90
47090;DHT22;32840;52.516;13.294;2023-08-06T15:01:59;18.30;99.90
47090;DHT22;32840;52.516;13.294;2023-08-06T15:04:44;18.30;99.90
47090;DHT22;32840;52.516;13.294;2023-08-06T15:07:31;18.30;99.90
47090;DHT22;32840;52.516;13.294;2023-08-06T15:10:20;18.20;99.90
47090;DHT22;32840;52.516;13.294;2023-08-06T15:13:05;18.30;99.90
47090;DHT22;32840;52.516;13.294;2023-08-06T15:15:51;18.30;99.90
47090;DHT22;32840;52.516;13.294;2023-08-06T15:18:36;18.30;99.90
47090;DHT22;32840;52.516;13.294;2023-08-06T15:21:21;18.30;99.90
47090;DHT22;32840;52.516;13.294;2023-08-06T15:24:05;18.30;99.90
47090;DHT22;32840;52.516;13.294;2023-08-06T15:26:51;18.30;99.90
47090;DHT22;32840;52.516;13.294;2023-08-06T15:29:36;18.40;99.90
47090;DHT22;32840;52.516;13.294;2023-08-06T15:32:21;18.40;99.90
47090;DHT22;32840;52.516;13.294;2023-08-06T15:35:07;18.40;99.90
47090;DHT22;32840;52.516;13.294;2023-08-06T15:37:53;18.40;99.90
47090;DHT22;32840;52.516;13.294;2023-08-06T15:40:38;18.40;99.90
47090;DHT22;32840;52.516;13.294;2023-08-06T15:43:23;18.40;99.90
47090;DHT22;32840;52.516;13.294;2023-08-06T15:46:08;18.40;99.90
47090;DHT22;32840;52.516;13.294;2023-08-06T15:48:53;18.40;99.90
47090;DHT22;32840;52.516;13.294;2023-08-06T15:51:38;18.40;99.90
47090;DHT22;32840;52.516;13.294;2023-08-06T15:54:23;18.40;99.90
47090;DHT22;32840;52.516;13.294;2023-08-06T15:57:08;18.40;99.90
47090;DHT22;32840;52.516;13.294;2023-08-06T15:59:53;18.40;99.90
47090;DHT22;32840;52.516;13.294;2023-08-06T16:02:38;18.40;99.90
47090;DHT22;32840;52.516;13.294;2023-08-06T16:05:23;18.40;99.90
47090;DHT22;32840;52.516;13.294;2023-08-06T16:08:08;18.40;99.90
47090;DHT22;32840;52.516;13.294;2023-08-06T16:10:53;18.50;99.90
47090;DHT22;32840;52.516;13.294;2023-08-06T16:13:38;18.60;99.90
47090;DHT22;32840;52.516;13.294;2023-08-06T16:16:23;18.70;99.90
47090;DHT22;32840;52.516;13.294;2023-08-06T16:19:08;18.60;99.90
47090;DHT22;32840;52.516;13.294;2023-08-06T16:21:53;18.50;99.90
47090;DHT22;32840;52.516;13.294;2023-08-06T16:24:38;18.40;99.90
47090;DHT22;32840;52.516;13.294;2023-08-06T16:27:24;18.40;99.90
47090;DHT22;32840;52.516;13.294;2023-08-06T16:30:09;18.30;99.90
47090;DHT22;32840;52.516;13.294;2023-08-06T16:32:55;18.30;99.90
47090;DHT22;32840;52.516;13.294;2023-08-06T16:35:40;18.20;99.90
47090;DHT22;32840;52.516;13.294;2023-08-06T16:38:25;18.20;99.90
47090;DHT22;32840;52.516;13.294;2023-08-06T16:41:10;18.10;99.90
47090;DHT22;32840;52.516;13.294;2023-08-06T16:43:55;18.10;99.90
47090;DHT22;32840;52.516;13.294;2023-08-06T16:46:39;18.00;99.90
47090;DHT22;32840;52.516;13.294;2023-08-06T16:49:24;18.00;99.90
47090;DHT22;32840;52.516;13.294;2023-08-06T16:52:09;18.00;99.90
47090;DHT22;32840;52.516;13.294;2023-08-06T16:54:54;18.00;99.90
47090;DHT22;32840;52.516;13.294;2023-08-06T16:57:40;18.10;99.90
47090;DHT22;32840;52.516;13.294;2023-08-06T17:00:25;18.10;99.90
47090;DHT22;32840;52.516;13.294;2023-08-06T17:03:13;18.10;99.90
47090;DHT22;32840;52.516;13.294;2023-08-06T17:05:59;18.10;99.90
47090;DHT22;32840;52.516;13.294;2023-08-06T17:08:45;18.10;99.90
47090;DHT22;32840;52.516;13.294;2023-08-06T17:11:30;18.00;99.90
47090;DHT22;32840;52.516;13.294;2023-08-06T17:14:17;18.00;99.90
47090;DHT22;32840;52.516;13.294;2023-08-06T17:17:02;18.00;99.90
47090;DHT22;32840;52.516;13.294;2023-08-06T17:19:47;18.00;99.90